WHTO2: S Canadian Riv, Whitefield, OK

                                SHEF ID:       WHTO2     Canadian River near Whitefield,
STATION TYPE: Stream Gauge
Regulating: Stage = 17.50, Flow = 87858

PRECIP STAGE STAGE(2) RIV-FLOW BAT-LOAD
in ft ft cfs volt
Ccp-Rev Ccp-Rev Ccp-Rev Ccp-Rev Ccp-Rev
(America/Chicago)
05/05 00:00 0.00 3.56 3.46 2723 12.34
05/05 01:00 0.00 3.30 3.17 2295 12.33
05/05 02:00 0.00 3.03 2.89 1855 12.31
05/05 03:00 0.00 2.78 2.68 1459 12.31
05/05 04:00 0.00 2.57 2.47 1169 12.31
05/05 05:00 0.00 2.41 2.30 960 12.29
05/05 06:00 0.00 2.27 2.16 798 12.27
05/05 07:00 0.00 2.15 1.99 676 12.25
05/05 08:00 0.00 2.05 1.89 585 12.25
05/05 09:00 0.00 1.96 1.80 509 12.31
05/05 10:00 0.00 1.89 1.75 451 12.92
05/05 11:00 0.00 1.83 1.72 406 13.30
05/05 12:00 0.00 1.81 1.61 391 13.45
05/05 13:00 0.00 1.81 1.57 391 13.48
05/05 14:00 0.00 1.82 1.54 399 13.48
05/05 15:00 0.00 1.82 1.50 399 13.48
05/05 16:00 0.00 1.82 1.52 399 13.51
05/05 17:00 0.00 1.82 1.48 399 13.42
05/05 18:00 0.00 1.82 1.45 399 13.26
05/05 19:00 0.00 1.82 1.45 399 12.90
05/05 20:00 0.00 1.82 1.43 399 12.50
05/05 21:00 0.00 2.67 2.51 1301 12.37
05/05 22:00 0.00 3.60 3.45 2791 12.34
05/05 23:00 0.00 3.74 3.62 3040 12.31
Data processed at Wed 06May2026 04:47 GMT

NOTICE: If you are parsing this page

Please convert to using our Data API. Starting early 2026 we will be migrating to: https://water.usace.army.mil with modern pages rendered in JavaScript. When this migration completes you will no longer be able to scrape this page! CWMSDataAPI (CDA)

Timeseries IDs (TSIDs)

TSIDs used from left to right in the data table
WHIT.Precip-Inc.Total.1Hour.1Hour.Ccp-Rev
WHIT.Stage.Inst.1Hour.0.Ccp-Rev
WHIT.Stage-Alt.Inst.1Hour.0.Ccp-Rev
WHIT.Flow.Inst.1Hour.0.Ccp-Rev
WHIT.Volt-Battery Load.Inst.1Hour.0.Ccp-Rev

                            

All information presented herein is the property of the government of the United States of America and may be revised or deleted at any time without prior notice. Dissemination of this information without the expressed written consent of the Public Affairs Office, Tulsa District U.S. Army Corps of Engineers is strictly prohibited. These data are gathered electronically and, as presented, have NOT undergone any form of quality control. These data are NOT guaranteed to be valid or correct.